Decoded Metar for KNFE ( in _UNIDENTIFIED) (IATA:N/A) | Meteo·Mobile Aviation Weather
aviador You're here:

KNFE Decoded Metar

in _UNIDENTIFIED
Report Time2018-08-22 03:56:00
UTC Time2018-08-22 04:29:55
Flight Rules vfr VFR
Wind200° at 04 kt
W.Decomp.*RWY 23: 3.7 kt HW 1.4 kt LCW
W.Rank200° ranks 7
Current wind is below 200° avg. (6.2)
Visibility9999 m
Phenomena:N/A
Clouds:N/A
Expected CloudBase > 800 ft AGL from Temp-Dew spread
CeilingNone
Temp27°C (ISA +12)
Dew Point25°C (89% RH)
Heat Index30.6°C
QNH1013 hPa
Density Alt1,814 ft
Elevation13 ft
Report Wrong Elevation
Raw Report
METAR KNFE 220356Z AUTO 20004KT 10SM CLR 27/25 A2991 RMK AO2 SLP131
T02670250=

Extra information for KNFE:More info

Metar Taf Metar & Taf Last 4 Metars F.Rules Stats Wind Profile Meteogram Temp Stats Metar ALERT Operation Metar Decoded Social comments